Time;durP1;ratioP1;P1;durP2;ratioP2;P2;SDS_P1;SDS_P2;PMS_P1;PMS_P2;Temp;Humidity;BMP_temperature;BMP_pressure;BME280_temperature;BME280_humidity;BME280_pressure;Samples;Min_cycle;Max_cycle;Signal;HPM_P1;HPM_P2
2023/01/01 00:01:58;;;;;;;13.50;11.67;;;13.50;1.00;;;;;;5056494;28;21007;-78
2023/01/01 00:04:27;;;;;;;15.63;12.53;;;13.50;1.00;;;;;;5056034;28;20472;-79
2023/01/01 00:06:57;;;;;;;13.73;11.63;;;13.40;1.00;;;;;;5038573;28;20456;-78
2023/01/01 00:12:11;;;;;;;11.57;9.67;;;13.50;1.00;;;;;;5052986;28;20969;-78
2023/01/01 00:14:41;;;;;;;10.70;9.70;;;13.40;1.00;;;;;;5052509;28;20470;-78
2023/01/01 00:17:10;;;;;;;9.33;8.53;;;13.40;13.10;;;;;;5053006;28;20979;-78
2023/01/01 00:19:38;;;;;;;11.70;10.30;;;13.40;99.90;;;;;;5053933;28;20454;-78
2023/01/01 00:22:08;;;;;;;11.43;10.00;;;13.50;1.00;;;;;;5056220;28;20472;-78
2023/01/01 00:24:56;;;;;;;11.50;10.30;;;13.40;1.00;;;;;;5058329;28;20460;-78
2023/01/01 00:27:24;;;;;;;10.47;9.47;;;13.40;1.00;;;;;;5059562;28;20466;-77
2023/01/01 00:29:53;;;;;;;9.27;8.33;;;13.40;1.00;;;;;;5055436;28;20484;-78
2023/01/01 00:32:21;;;;;;;10.17;8.60;;;13.40;99.90;;;;;;5060247;28;20986;-78
2023/01/01 00:34:50;;;;;;;10.20;9.20;;;13.30;1.00;;;;;;5057105;28;20902;-79
2023/01/01 00:37:20;;;;;;;9.20;8.23;;;13.30;99.90;;;;;;5056629;28;20454;-78
2023/01/01 00:39:48;;;;;;;10.70;8.80;;;13.20;1.00;;;;;;5059750;28;20552;-78
2023/01/01 00:42:16;;;;;;;10.17;7.50;;;13.20;1.00;;;;;;5060851;28;20563;-78
2023/01/01 00:44:44;;;;;;;11.33;8.33;;;13.30;99.90;;;;;;5053774;28;20457;-79
2023/01/01 00:47:12;;;;;;;12.70;7.87;;;13.30;1.00;;;;;;5056849;28;20522;-78
2023/01/01 00:49:40;;;;;;;8.60;7.70;;;13.30;32.80;;;;;;5058607;28;20982;-79
2023/01/01 00:52:08;;;;;;;8.73;7.90;;;13.30;24.60;;;;;;5056102;28;20474;-77
2023/01/01 00:54:38;;;;;;;8.43;7.63;;;13.30;99.90;;;;;;5054392;28;20469;-78
2023/01/01 00:57:06;;;;;;;8.50;7.60;;;13.30;99.90;;;;;;5060156;28;21230;-78
2023/01/01 00:59:34;;;;;;;9.70;8.70;;;13.30;99.90;;;;;;5056582;28;20459;-77
2023/01/01 01:02:02;;;;;;;9.73;7.50;;;13.30;99.90;;;;;;5057702;28;21015;-78
2023/01/01 01:04:30;;;;;;;8.93;8.03;;;13.20;59.40;;;;;;5053848;28;20480;-78
2023/01/01 01:06:58;;;;;;;7.70;6.90;;;13.30;1.00;;;;;;5058604;28;20491;-78
2023/01/01 01:09:26;;;;;;;8.57;7.67;;;13.30;1.00;;;;;;5056675;28;20456;-78
2023/01/01 01:11:56;;;;;;;8.97;7.63;;;13.30;99.90;;;;;;5058290;28;20495;-78
2023/01/01 01:14:44;;;;;;;9.10;7.97;;;13.30;99.90;;;;;;5057136;28;20500;-75
2023/01/01 01:17:12;;;;;;;9.60;8.63;;;13.30;99.90;;;;;;5049572;28;20445;-78
2023/01/01 01:19:40;;;;;;;8.70;7.97;;;13.20;99.90;;;;;;5059882;28;20463;-77
2023/01/01 01:22:08;;;;;;;9.13;8.17;;;13.20;99.90;;;;;;5056496;28;20469;-77
2023/01/01 01:24:36;;;;;;;11.90;8.40;;;13.20;59.70;;;;;;5058770;28;20460;-78
2023/01/01 01:27:06;;;;;;;9.03;7.80;;;13.30;99.90;;;;;;5058045;28;20437;-78
2023/01/01 01:29:34;;;;;;;9.03;7.93;;;13.20;1.00;;;;;;5059399;28;20458;-78
2023/01/01 01:32:02;;;;;;;14.50;10.40;;;13.30;1.00;;;;;;5060676;28;20485;-78
2023/01/01 01:34:30;;;;;;;9.97;8.97;;;13.20;1.00;;;;;;5060273;28;20791;-77
2023/01/01 01:36:58;;;;;;;8.70;7.80;;;13.30;1.00;;;;;;5060284;28;20548;-78
2023/01/01 01:39:26;;;;;;;9.50;8.57;;;13.30;1.00;;;;;;5057931;28;20559;-79
2023/01/01 01:41:54;;;;;;;9.80;8.40;;;13.30;1.00;;;;;;5059808;28;20812;-79
2023/01/01 01:44:50;;;;;;;10.20;8.63;;;13.40;99.90;;;;;;5055218;28;20832;-78
2023/01/01 01:47:23;;;;;;;12.10;9.53;;;13.40;99.90;;;;;;5055748;28;20917;-78
2023/01/01 01:49:55;;;;;;;10.43;9.43;;;13.40;99.90;;;;;;5055921;28;20511;-78
2023/01/01 01:52:24;;;;;;;10.60;8.63;;;13.40;99.90;;;;;;5058999;28;20478;-78
2023/01/01 01:54:53;;;;;;;12.63;9.63;;;13.40;99.90;;;;;;5054941;28;20545;-77
2023/01/01 01:57:22;;;;;;;12.20;9.27;;;13.40;99.90;;;;;;5056917;28;20454;-79
2023/01/01 01:59:56;;;;;;;9.30;8.00;;;13.40;99.90;;;;;;5057621;28;20540;-78
2023/01/01 02:02:32;;;;;;;9.23;7.73;;;13.40;99.90;;;;;;5059487;28;20519;-78
2023/01/01 02:05:00;;;;;;;10.63;8.60;;;13.50;99.90;;;;;;5059245;28;21057;-78
2023/01/01 02:07:31;;;;;;;8.23;7.40;;;13.40;99.90;;;;;;5060477;28;20468;-78
2023/01/01 02:10:01;;;;;;;8.30;7.30;;;13.40;99.90;;;;;;5057001;28;20987;-77
2023/01/01 02:12:29;;;;;;;7.03;6.33;;;13.40;99.90;;;;;;5054889;28;20507;-78
2023/01/01 02:14:59;;;;;;;12.40;6.50;;;13.40;99.90;;;;;;5055868;28;20453;-77
2023/01/01 02:17:33;;;;;;;7.00;6.40;;;13.40;99.90;;;;;;5054304;28;22831;-77
2023/01/01 02:20:37;;;;;;;7.70;7.00;;;13.40;99.90;;;;;;5055959;28;20461;-78
2023/01/01 02:23:28;;;;;;;6.00;5.23;;;13.40;99.90;;;;;;5054610;28;20496;-77
2023/01/01 02:26:10;;;;;;;7.07;6.37;;;13.40;99.90;;;;;;5057075;28;20457;-78
2023/01/01 02:28:50;;;;;;;6.73;6.10;;;13.40;1.00;;;;;;5052414;28;20461;-78
2023/01/01 02:31:22;;;;;;;6.13;5.53;;;13.50;19.40;;;;;;5056841;28;20478;-77
2023/01/01 02:33:54;;;;;;;7.30;5.50;;;13.50;1.00;;;;;;5053290;28;20456;-77
2023/01/01 02:36:25;;;;;;;6.07;5.57;;;13.50;1.00;;;;;;5057346;28;20858;-76
2023/01/01 02:38:56;;;;;;;5.93;5.10;;;13.50;8.00;;;;;;5052965;28;20459;-77
2023/01/01 02:41:28;;;;;;;6.07;5.57;;;13.50;1.00;;;;;;5053758;28;20967;-78
2023/01/01 02:43:57;;;;;;;4.43;4.03;;;13.50;1.00;;;;;;5055551;28;20468;-76
2023/01/01 02:46:31;;;;;;;4.43;4.10;;;13.50;1.00;;;;;;5057923;28;20486;-77
2023/01/01 02:49:00;;;;;;;3.87;3.37;;;13.50;1.00;;;;;;5050529;28;21167;-77
2023/01/01 02:51:44;;;;;;;5.37;4.10;;;13.50;1.00;;;;;;5057425;28;20485;-77
2023/01/01 02:54:25;;;;;;;3.33;3.03;;;13.50;99.90;;;;;;5054400;28;20465;-78
2023/01/01 02:57:05;;;;;;;4.17;3.87;;;13.60;99.90;;;;;;5054745;28;20501;-78
2023/01/01 03:02:40;;;;;;;5.00;4.60;;;13.60;99.90;;;;;;5053737;28;20992;-78
2023/01/01 03:05:26;;;;;;;4.60;4.23;;;13.50;99.90;;;;;;5054494;28;20981;-77
2023/01/01 03:08:04;;;;;;;4.27;3.90;;;13.60;99.90;;;;;;5056738;28;20457;-78
2023/01/01 03:10:40;;;;;;;2.93;2.73;;;13.50;99.90;;;;;;5051220;28;20462;-78
2023/01/01 03:13:14;;;;;;;3.87;3.43;;;13.60;99.90;;;;;;5055463;28;20504;-78
2023/01/01 03:15:51;;;;;;;3.77;3.47;;;13.60;99.90;;;;;;5054582;28;20541;-79
2023/01/01 03:18:24;;;;;;;5.27;4.80;;;13.60;1.00;;;;;;5055078;28;20463;-79
2023/01/01 03:20:56;;;;;;;5.83;4.40;;;13.60;1.00;;;;;;5053598;28;20553;-77
2023/01/01 03:23:35;;;;;;;3.90;3.60;;;13.50;1.00;;;;;;5052915;28;20485;-77
2023/01/01 03:26:07;;;;;;;5.10;3.63;;;13.50;1.00;;;;;;5052011;28;20567;-78
2023/01/01 03:28:39;;;;;;;5.70;4.00;;;13.50;1.00;;;;;;5053855;28;20461;-78
2023/01/01 03:31:10;;;;;;;2.90;2.70;;;13.50;1.00;;;;;;5056355;28;20510;-78
2023/01/01 03:33:42;;;;;;;4.10;3.10;;;13.50;1.00;;;;;;5054220;28;20470;-77
2023/01/01 03:36:13;;;;;;;2.87;2.67;;;13.50;1.00;;;;;;5053936;28;20450;-78
2023/01/01 03:38:47;;;;;;;3.90;3.50;;;13.50;1.00;;;;;;5055043;28;20980;-79
2023/01/01 03:41:22;;;;;;;4.40;4.00;;;13.50;1.00;;;;;;5053784;28;20461;-77
2023/01/01 03:43:55;;;;;;;3.40;3.20;;;13.50;1.00;;;;;;5052987;28;20527;-78
2023/01/01 03:46:28;;;;;;;4.63;4.00;;;13.50;1.00;;;;;;5054132;28;20463;-78
2023/01/01 03:48:56;;;;;;;5.97;4.30;;;13.50;1.00;;;;;;5056141;28;20498;-76
2023/01/01 03:51:44;;;;;;;4.60;3.37;;;13.50;1.00;;;;;;5052710;28;20488;-77
2023/01/01 03:54:19;;;;;;;5.07;4.57;;;13.50;1.00;;;;;;5053162;28;20462;-78
2023/01/01 03:56:55;;;;;;;3.40;3.10;;;13.50;1.00;;;;;;5053448;28;21579;-79
2023/01/01 03:59:29;;;;;;;4.23;3.40;;;13.50;19.20;;;;;;5052504;28;20460;-77
2023/01/01 04:02:03;;;;;;;3.73;3.43;;;13.50;1.00;;;;;;5057579;28;20473;-78
2023/01/01 04:04:32;;;;;;;4.10;3.33;;;13.50;99.90;;;;;;5055391;28;20925;-77
2023/01/01 04:07:00;;;;;;;4.70;3.70;;;13.40;8.00;;;;;;5052182;28;20448;-78
2023/01/01 04:09:48;;;;;;;4.17;3.70;;;13.50;39.20;;;;;;5052814;28;20449;-77
2023/01/01 04:12:18;;;;;;;4.57;3.43;;;13.50;1.00;;;;;;5056880;28;20514;-76
2023/01/01 04:14:46;;;;;;;4.90;4.40;;;13.40;75.50;;;;;;5054434;28;20971;-77
2023/01/01 04:17:15;;;;;;;4.83;4.43;;;13.40;99.90;;;;;;5052144;28;20468;-76
2023/01/01 04:19:43;;;;;;;4.37;3.97;;;13.40;1.00;;;;;;5057847;28;20449;-77
2023/01/01 04:22:22;;;;;;;4.43;4.10;;;13.40;1.00;;;;;;5057640;28;20478;-78
2023/01/01 04:24:50;;;;;;;3.90;3.50;;;13.40;99.90;;;;;;5054635;28;20449;-79
2023/01/01 04:27:18;;;;;;;4.37;3.87;;;13.40;1.00;;;;;;5050063;28;20457;-77
2023/01/01 04:29:46;;;;;;;4.47;3.80;;;13.40;99.90;;;;;;5058188;28;20497;-78
2023/01/01 04:32:16;;;;;;;3.67;3.47;;;13.40;1.00;;;;;;5051418;28;21070;-78
2023/01/01 04:34:44;;;;;;;5.63;4.73;;;13.30;1.00;;;;;;5055217;28;20536;-78
2023/01/01 04:37:12;;;;;;;3.90;3.60;;;13.30;1.00;;;;;;5053981;28;20453;-78
2023/01/01 04:39:40;;;;;;;5.30;4.43;;;13.40;1.00;;;;;;5053126;28;20453;-78
2023/01/01 04:42:09;;;;;;;4.53;3.83;;;13.30;1.00;;;;;;5054974;28;20497;-78
2023/01/01 04:44:37;;;;;;;5.03;4.63;;;13.40;1.00;;;;;;5051811;28;21024;-78
2023/01/01 04:47:05;;;;;;;4.40;4.00;;;13.40;1.00;;;;;;5055510;28;20584;-78
2023/01/01 04:49:35;;;;;;;4.90;3.77;;;13.40;1.00;;;;;;5054734;28;20510;-77
2023/01/01 04:52:03;;;;;;;3.10;2.80;;;13.30;82.00;;;;;;5051864;28;21004;-78
2023/01/01 04:54:32;;;;;;;4.07;3.63;;;13.30;1.00;;;;;;5054072;28;20476;-77
2023/01/01 04:57:00;;;;;;;3.43;3.13;;;13.30;16.50;;;;;;5052124;28;20452;-77
2023/01/01 04:59:29;;;;;;;4.10;3.80;;;13.30;1.00;;;;;;5054898;28;20518;-78
2023/01/01 05:01:58;;;;;;;3.80;3.50;;;13.30;51.10;;;;;;5047195;28;20492;-79
2023/01/01 05:04:26;;;;;;;3.43;3.13;;;13.30;1.00;;;;;;5054948;28;20465;-78
2023/01/01 05:06:55;;;;;;;3.57;3.20;;;13.30;1.00;;;;;;5053709;28;20453;-78
2023/01/01 05:09:24;;;;;;;4.10;3.70;;;13.30;1.00;;;;;;5053966;28;20453;-79
2023/01/01 05:11:53;;;;;;;4.33;3.20;;;13.30;1.00;;;;;;5059041;28;21196;-78
2023/01/01 05:14:21;;;;;;;3.83;3.30;;;13.40;1.00;;;;;;5055834;28;20473;-77
2023/01/01 05:16:49;;;;;;;5.10;3.53;;;13.30;1.00;;;;;;5056240;28;20458;-77
2023/01/01 05:19:17;;;;;;;2.80;2.60;;;13.30;1.00;;;;;;5058401;28;21338;-77
2023/01/01 05:21:46;;;;;;;3.40;3.10;;;13.40;99.90;;;;;;5058421;28;20484;-77
2023/01/01 05:24:15;;;;;;;4.50;2.80;;;13.50;1.00;;;;;;5057850;28;20489;-78
2023/01/01 05:26:45;;;;;;;3.80;3.03;;;13.30;1.00;;;;;;5058045;28;20457;-78
2023/01/01 05:29:13;;;;;;;4.57;2.97;;;13.30;1.00;;;;;;5057651;28;20485;-79
2023/01/01 05:31:45;;;;;;;3.60;3.10;;;13.30;1.00;;;;;;5058341;28;20480;-77
2023/01/01 05:34:13;;;;;;;3.10;2.83;;;13.30;1.00;;;;;;5059040;28;20863;-79
2023/01/01 05:36:41;;;;;;;3.70;3.40;;;13.30;1.00;;;;;;5056757;28;20453;-78
2023/01/01 05:39:11;;;;;;;3.97;3.20;;;13.30;1.00;;;;;;5054789;28;20486;-78
2023/01/01 05:41:42;;;;;;;3.87;3.53;;;13.30;1.00;;;;;;5056096;28;20442;-77
2023/01/01 05:44:10;;;;;;;3.17;2.87;;;13.20;1.00;;;;;;5057477;28;20537;-79
2023/01/01 05:46:39;;;;;;;4.63;3.20;;;13.30;1.00;;;;;;5055838;28;20451;-77
2023/01/01 05:49:09;;;;;;;3.17;2.80;;;13.30;1.00;;;;;;5054976;28;20465;-78
2023/01/01 05:51:38;;;;;;;3.23;3.00;;;13.30;1.00;;;;;;5055273;28;20558;-78
2023/01/01 05:54:05;;;;;;;3.50;3.20;;;13.20;1.00;;;;;;5053169;28;20921;-77
2023/01/01 05:56:33;;;;;;;3.93;3.13;;;13.10;1.00;;;;;;5056167;28;20458;-77
2023/01/01 05:59:02;;;;;;;4.57;3.63;;;13.20;1.00;;;;;;5053303;28;20456;-78
2023/01/01 06:01:31;;;;;;;3.10;2.90;;;13.10;1.00;;;;;;5055154;28;20458;-78
2023/01/01 06:04:00;;;;;;;3.47;3.27;;;13.10;1.00;;;;;;5056833;28;20457;-79
2023/01/01 06:06:32;;;;;;;4.17;3.43;;;13.10;99.90;;;;;;5059857;28;20815;-79
2023/01/01 06:09:02;;;;;;;3.40;3.20;;;13.00;94.00;;;;;;5057539;28;20460;-77
2023/01/01 06:11:31;;;;;;;4.20;3.50;;;13.00;1.00;;;;;;5058631;28;21154;-77
2023/01/01 06:14:01;;;;;;;3.87;3.57;;;13.00;33.50;;;;;;5053682;28;20504;-78
2023/01/01 06:16:31;;;;;;;6.60;3.50;;;13.00;99.90;;;;;;5054692;28;20480;-78
2023/01/01 06:18:59;;;;;;;3.67;3.10;;;12.90;57.10;;;;;;5055360;28;20962;-79
2023/01/01 06:21:28;;;;;;;4.10;3.40;;;12.90;99.90;;;;;;5056638;28;20498;-78
2023/01/01 06:23:58;;;;;;;4.20;3.13;;;12.90;1.00;;;;;;5055417;28;20552;-77
2023/01/01 06:26:28;;;;;;;3.83;2.90;;;12.90;99.90;;;;;;5052826;28;20455;-78
2023/01/01 06:28:57;;;;;;;5.00;3.27;;;12.90;99.90;;;;;;5057119;28;20461;-77
2023/01/01 06:31:28;;;;;;;3.03;2.77;;;12.90;99.90;;;;;;5051402;28;20860;-79
2023/01/01 06:34:02;;;;;;;4.03;3.40;;;12.80;99.90;;;;;;5054837;28;20487;-78
2023/01/01 06:36:30;;;;;;;3.27;2.97;;;12.90;99.90;;;;;;5055985;28;20464;-78
2023/01/01 06:38:59;;;;;;;6.10;4.13;;;12.90;99.90;;;;;;5053304;28;20467;-77
2023/01/01 06:41:28;;;;;;;4.17;3.77;;;12.80;99.90;;;;;;5054644;28;20460;-77
2023/01/01 06:43:56;;;;;;;3.33;3.03;;;12.90;99.90;;;;;;5055244;28;20530;-77
2023/01/01 06:46:27;;;;;;;3.50;3.20;;;12.80;32.30;;;;;;5058621;28;20858;-76
2023/01/01 06:48:58;;;;;;;6.17;3.07;;;12.80;99.90;;;;;;5052740;28;20803;-77
2023/01/01 06:51:28;;;;;;;4.07;3.73;;;12.80;99.90;;;;;;5056671;28;20448;-76
2023/01/01 06:53:58;;;;;;;3.27;2.97;;;12.80;1.00;;;;;;5055591;28;20501;-78
2023/01/01 06:56:27;;;;;;;3.53;3.13;;;12.80;11.80;;;;;;5055092;28;20455;-79
2023/01/01 06:58:55;;;;;;;3.70;3.27;;;12.90;1.00;;;;;;5058036;28;20538;-77
2023/01/01 07:01:26;;;;;;;2.87;2.67;;;12.90;1.00;;;;;;5052378;28;20454;-77
2023/01/01 07:03:57;;;;;;;7.13;3.27;;;12.90;1.00;;;;;;5054091;28;21019;-78
2023/01/01 07:06:26;;;;;;;3.20;2.93;;;12.80;1.00;;;;;;5053355;28;20904;-76
2023/01/01 07:08:54;;;;;;;3.00;2.80;;;12.80;1.00;;;;;;5054258;28;20469;-77
2023/01/01 07:11:22;;;;;;;3.03;2.73;;;12.80;1.00;;;;;;5056812;28;20461;-78
2023/01/01 07:13:50;;;;;;;3.10;2.80;;;12.80;2.00;;;;;;5056902;28;20568;-77
2023/01/01 07:16:19;;;;;;;2.87;2.67;;;12.80;1.00;;;;;;5056231;28;20460;-77
2023/01/01 07:18:49;;;;;;;3.47;3.17;;;12.80;1.00;;;;;;5055455;28;20495;-77
2023/01/01 07:21:27;;;;;;;3.20;2.90;;;12.80;1.00;;;;;;5056316;28;20460;-78
2023/01/01 07:23:57;;;;;;;4.23;3.77;;;12.80;99.90;;;;;;5056891;28;20461;-77
2023/01/01 07:26:26;;;;;;;3.10;2.90;;;12.80;7.00;;;;;;5056822;28;20510;-77
2023/01/01 07:28:55;;;;;;;2.90;2.70;;;12.80;1.00;;;;;;5060990;28;20818;-79
2023/01/01 07:31:33;;;;;;;4.57;4.00;;;12.80;1.00;;;;;;5055427;28;20521;-78
2023/01/01 07:34:01;;;;;;;2.90;2.70;;;12.80;1.00;;;;;;5036310;28;20560;-78
2023/01/01 07:36:30;;;;;;;3.23;2.90;;;12.80;1.00;;;;;;5059093;28;20469;-78
2023/01/01 07:38:59;;;;;;;3.27;3.00;;;12.70;87.80;;;;;;5054620;28;20498;-78
2023/01/01 07:41:27;;;;;;;3.67;3.23;;;12.70;38.90;;;;;;5054141;28;20465;-78
2023/01/01 07:43:55;;;;;;;4.30;2.77;;;12.70;7.30;;;;;;5054370;28;20448;-79
2023/01/01 07:46:23;;;;;;;3.60;3.30;;;12.80;1.00;;;;;;5057803;28;20457;-78
2023/01/01 07:48:51;;;;;;;5.50;3.10;;;12.80;99.90;;;;;;5058396;28;20448;-78
2023/01/01 07:51:20;;;;;;;4.37;3.30;;;12.70;1.00;;;;;;5056102;28;20476;-78
2023/01/01 07:53:49;;;;;;;3.10;2.90;;;12.80;1.00;;;;;;5057725;28;20474;-78
2023/01/01 07:56:17;;;;;;;3.00;2.70;;;12.80;1.00;;;;;;5057315;28;20510;-78
2023/01/01 07:58:46;;;;;;;3.60;3.30;;;12.90;1.00;;;;;;5057758;28;20461;-77
2023/01/01 08:01:14;;;;;;;4.03;2.63;;;12.90;1.00;;;;;;5056461;28;20452;-77
2023/01/01 08:03:43;;;;;;;3.70;3.40;;;12.90;1.00;;;;;;5058461;28;20995;-79
2023/01/01 08:06:12;;;;;;;3.97;3.63;;;12.80;1.00;;;;;;5056403;28;20504;-77
2023/01/01 08:08:41;;;;;;;3.30;3.07;;;12.90;1.00;;;;;;5055631;28;20457;-78
2023/01/01 08:11:10;;;;;;;3.10;2.87;;;12.90;1.00;;;;;;5058136;28;20469;-78
2023/01/01 08:13:38;;;;;;;4.60;2.87;;;12.90;99.90;;;;;;5053029;28;20525;-79
2023/01/01 08:16:07;;;;;;;3.80;2.80;;;13.00;1.00;;;;;;5052895;28;20573;-77
2023/01/01 08:18:35;;;;;;;3.17;2.97;;;13.00;99.90;;;;;;5049320;28;20460;-78
2023/01/01 08:21:04;;;;;;;3.30;2.77;;;13.10;99.90;;;;;;5055999;28;20473;-79
2023/01/01 08:23:32;;;;;;;2.70;2.60;;;13.10;99.90;;;;;;5056728;28;20563;-77
2023/01/01 08:26:01;;;;;;;3.03;2.77;;;13.10;99.90;;;;;;5052274;28;20449;-78
2023/01/01 08:28:31;;;;;;;2.97;2.77;;;13.10;99.90;;;;;;5056095;28;20500;-78
2023/01/01 08:30:59;;;;;;;3.60;3.27;;;13.10;99.90;;;;;;5056992;28;20548;-78
2023/01/01 08:33:27;;;;;;;3.53;3.20;;;13.10;99.90;;;;;;5053641;28;20539;-78
2023/01/01 08:35:55;;;;;;;5.03;3.10;;;13.10;99.90;;;;;;5055034;28;20460;-77
2023/01/01 08:38:23;;;;;;;3.50;3.00;;;13.20;99.90;;;;;;5054756;28;20530;-78
2023/01/01 08:40:51;;;;;;;3.70;3.33;;;13.20;99.90;;;;;;5056748;28;20448;-78
2023/01/01 08:43:19;;;;;;;3.60;3.30;;;13.30;99.90;;;;;;5056816;28;20484;-78
2023/01/01 08:45:49;;;;;;;3.70;3.40;;;13.40;99.90;;;;;;5056531;28;20439;-77
2023/01/01 08:48:17;;;;;;;3.60;3.30;;;13.30;99.90;;;;;;5058455;28;20490;-78
2023/01/01 08:50:51;;;;;;;3.30;2.97;;;13.30;99.90;;;;;;5059425;28;20452;-78
2023/01/01 08:53:19;;;;;;;3.70;2.90;;;13.30;99.90;;;;;;5057133;28;20490;-77
2023/01/01 08:55:56;;;;;;;2.70;2.50;;;13.30;99.90;;;;;;5056833;28;20476;-77
2023/01/01 08:58:24;;;;;;;2.80;2.60;;;13.30;99.90;;;;;;5055217;28;20963;-77
2023/01/01 09:00:53;;;;;;;3.43;3.13;;;13.40;99.90;;;;;;5056416;28;20451;-77
2023/01/01 09:03:22;;;;;;;4.17;3.60;;;13.40;99.90;;;;;;5056144;28;20466;-78
2023/01/01 09:05:51;;;;;;;4.10;3.20;;;13.40;99.90;;;;;;5055605;28;20459;-78
2023/01/01 09:08:19;;;;;;;3.70;2.80;;;13.40;99.90;;;;;;5057722;28;20490;-77
2023/01/01 09:10:47;;;;;;;4.10;2.93;;;13.50;99.90;;;;;;5062074;28;20453;-79
2023/01/01 09:13:18;;;;;;;4.03;3.10;;;13.50;99.90;;;;;;5056503;28;20550;-78
2023/01/01 09:15:46;;;;;;;3.90;2.70;;;13.70;99.90;;;;;;5053364;28;20580;-78
2023/01/01 09:18:16;;;;;;;3.43;3.20;;;13.70;99.90;;;;;;5050563;28;21299;-78
2023/01/01 09:20:44;;;;;;;3.40;3.20;;;13.80;99.90;;;;;;5058643;28;20437;-78
2023/01/01 09:23:13;;;;;;;3.87;3.47;;;13.80;99.90;;;;;;5056049;28;20489;-77
2023/01/01 09:25:41;;;;;;;3.00;2.73;;;13.80;99.90;;;;;;5057972;28;20457;-78
2023/01/01 09:28:12;;;;;;;3.10;2.80;;;13.90;99.90;;;;;;5056946;28;20484;-77
2023/01/01 09:30:40;;;;;;;4.83;3.57;;;14.00;69.70;;;;;;5054291;28;20565;-77
2023/01/01 09:33:09;;;;;;;3.87;3.57;;;14.10;87.80;;;;;;5055232;28;20474;-78
2023/01/01 09:35:38;;;;;;;3.40;3.20;;;14.00;79.00;;;;;;5055055;28;20544;-78
2023/01/01 09:38:06;;;;;;;2.97;2.77;;;14.10;88.90;;;;;;5053188;28;20537;-78
2023/01/01 09:40:45;;;;;;;4.47;3.93;;;14.10;44.10;;;;;;5053090;28;20470;-79
2023/01/01 09:43:28;;;;;;;3.77;3.47;;;14.00;64.30;;;;;;5054698;28;20567;-78
2023/01/01 09:45:59;;;;;;;4.97;4.40;;;14.20;32.20;;;;;;5053733;28;20484;-77
2023/01/01 09:48:30;;;;;;;5.07;3.23;;;14.30;1.00;;;;;;5055782;28;20450;-77
2023/01/01 09:51:07;;;;;;;3.50;3.30;;;14.40;1.00;;;;;;5057851;28;20884;-78
2023/01/01 09:53:42;;;;;;;3.50;3.20;;;14.50;1.00;;;;;;5053411;28;20478;-79
2023/01/01 09:56:15;;;;;;;3.87;3.57;;;14.60;1.00;;;;;;5056539;28;20476;-78
2023/01/01 09:58:44;;;;;;;3.50;3.17;;;14.80;1.00;;;;;;5054965;28;20529;-77
2023/01/01 10:01:19;;;;;;;3.90;3.60;;;14.90;1.00;;;;;;5056518;28;20504;-78
2023/01/01 10:03:54;;;;;;;3.60;3.20;;;14.90;1.00;;;;;;5056042;28;20480;-78
2023/01/01 10:06:27;;;;;;;4.80;3.47;;;15.00;1.00;;;;;;5052063;28;20451;-78
2023/01/01 10:09:07;;;;;;;3.53;3.20;;;15.30;1.00;;;;;;5048878;28;20443;-79
2023/01/01 10:11:45;;;;;;;3.63;3.30;;;15.30;1.00;;;;;;5055415;28;20505;-78
2023/01/01 10:14:21;;;;;;;3.30;3.00;;;15.40;1.00;;;;;;5056530;28;20769;-78
2023/01/01 10:16:54;;;;;;;2.87;2.67;;;15.50;1.00;;;;;;5057810;28;20456;-78
2023/01/01 10:19:28;;;;;;;3.23;2.90;;;15.60;1.00;;;;;;5054654;28;20428;-77
2023/01/01 10:22:02;;;;;;;3.53;3.23;;;15.80;1.00;;;;;;5056810;28;20467;-78
2023/01/01 10:24:43;;;;;;;3.03;2.77;;;15.90;1.00;;;;;;5055942;28;20449;-77
2023/01/01 10:27:28;;;;;;;3.20;3.00;;;15.80;1.00;;;;;;5055167;28;20564;-76
2023/01/01 10:29:57;;;;;;;3.30;3.00;;;15.80;1.00;;;;;;5054575;28;20472;-78
2023/01/01 10:32:34;;;;;;;3.40;3.03;;;16.10;1.00;;;;;;5053383;28;20550;-78
2023/01/01 10:35:03;;;;;;;3.20;2.90;;;16.20;99.90;;;;;;5052186;28;20455;-78
2023/01/01 10:37:37;;;;;;;6.03;2.83;;;16.40;99.90;;;;;;5055696;28;20950;-77
2023/01/01 10:40:13;;;;;;;3.53;3.10;;;16.40;99.90;;;;;;5053721;28;20455;-78
2023/01/01 10:42:42;;;;;;;4.37;3.20;;;16.70;99.90;;;;;;5055473;28;20586;-77
2023/01/01 10:45:14;;;;;;;3.60;3.30;;;16.80;99.90;;;;;;5054752;28;20473;-78
2023/01/01 10:48:13;;;;;;;5.67;3.20;;;17.10;99.90;;;;;;5052182;28;21034;-78
2023/01/01 10:50:44;;;;;;;3.93;3.03;;;17.00;99.90;;;;;;5051164;28;20450;-78
2023/01/01 10:53:23;;;;;;;3.30;3.00;;;17.20;99.90;;;;;;5052160;28;21018;-79
2023/01/01 10:55:59;;;;;;;3.27;2.77;;;17.30;99.90;;;;;;5048388;28;20841;-78
2023/01/01 10:58:38;;;;;;;2.43;2.23;;;17.50;99.90;;;;;;5070371;28;20461;-78
2023/01/01 11:01:07;;;;;;;4.77;2.33;;;17.50;99.90;;;;;;5051803;28;20462;-77
2023/01/01 11:03:36;;;;;;;4.03;3.10;;;17.50;99.90;;;;;;5051454;28;20478;-79
2023/01/01 11:06:14;;;;;;;3.63;2.73;;;17.70;99.90;;;;;;5055307;28;20442;-78
2023/01/01 11:08:49;;;;;;;3.23;2.97;;;17.80;99.90;;;;;;5053398;28;20455;-78
2023/01/01 11:11:22;;;;;;;3.50;3.00;;;18.10;99.90;;;;;;5055715;28;20434;-78
2023/01/01 11:13:53;;;;;;;3.23;2.50;;;18.10;99.90;;;;;;5053950;28;21088;-78
2023/01/01 11:16:22;;;;;;;2.70;2.50;;;18.00;99.90;;;;;;5055322;28;20473;-77
2023/01/01 11:18:51;;;;;;;3.40;2.13;;;18.10;99.90;;;;;;5052305;28;20874;-78
2023/01/01 11:21:21;;;;;;;5.30;1.90;;;18.30;99.90;;;;;;5050304;28;20464;-78
2023/01/01 11:24:09;;;;;;;4.40;2.90;;;18.30;99.90;;;;;;5051512;28;20479;-78
2023/01/01 11:26:37;;;;;;;4.47;1.90;;;18.40;99.90;;;;;;5055290;28;20434;-77
2023/01/01 11:29:21;;;;;;;2.93;2.63;;;18.50;99.90;;;;;;5056074;28;20802;-76
2023/01/01 11:31:49;;;;;;;3.17;2.30;;;18.30;99.90;;;;;;5052751;28;20455;-77
2023/01/01 11:34:31;;;;;;;2.80;1.83;;;18.30;99.90;;;;;;5052307;28;20447;-80
2023/01/01 11:37:19;;;;;;;4.90;4.50;;;18.20;99.90;;;;;;5052517;28;20875;-78
2023/01/01 11:39:51;;;;;;;2.77;2.57;;;18.00;99.90;;;;;;5049380;28;20476;-77
2023/01/01 11:42:22;;;;;;;6.07;2.90;;;17.90;99.90;;;;;;5051398;28;20489;-78
2023/01/01 11:44:54;;;;;;;3.03;2.73;;;17.80;99.90;;;;;;5052166;28;20472;-79
2023/01/01 11:47:27;;;;;;;3.83;3.50;;;17.70;99.90;;;;;;5053716;28;20980;-78
2023/01/01 11:49:59;;;;;;;15.47;11.67;;;17.70;99.90;;;;;;5054467;28;20473;-78
2023/01/01 11:52:34;;;;;;;2.30;2.00;;;17.70;99.90;;;;;;5052643;28;20481;-78
2023/01/01 11:55:14;;;;;;;3.00;1.90;;;17.70;99.90;;;;;;5053065;28;21035;-77
2023/01/01 11:57:51;;;;;;;5.70;5.10;;;17.70;99.90;;;;;;5053499;28;20465;-78
2023/01/01 12:00:19;;;;;;;2.33;2.10;;;17.60;99.90;;;;;;5054260;28;20498;-79
2023/01/01 12:02:52;;;;;;;6.07;4.73;;;17.70;99.90;;;;;;5055480;28;20534;-78
2023/01/01 12:05:24;;;;;;;4.33;2.23;;;17.80;99.90;;;;;;5051673;28;20472;-78
2023/01/01 12:07:53;;;;;;;4.57;2.00;;;17.80;99.90;;;;;;5056384;28;20981;-78
2023/01/01 12:10:27;;;;;;;4.00;2.10;;;17.80;99.90;;;;;;5055380;28;21013;-78
2023/01/01 12:13:00;;;;;;;3.30;1.90;;;17.70;99.90;;;;;;5054508;28;20490;-78
2023/01/01 12:15:36;;;;;;;12.40;9.73;;;17.70;99.90;;;;;;5053416;28;20953;-78
2023/01/01 12:18:12;;;;;;;3.23;1.93;;;17.70;99.90;;;;;;5056399;28;20473;-78
2023/01/01 12:20:49;;;;;;;2.50;2.10;;;17.70;99.90;;;;;;5058865;28;20458;-77
2023/01/01 12:23:18;;;;;;;3.77;2.33;;;17.60;99.90;;;;;;5059024;28;20545;-77
2023/01/01 12:25:58;;;;;;;1.93;1.70;;;17.80;99.90;;;;;;5056969;28;20954;-78
2023/01/01 12:28:38;;;;;;;3.20;3.00;;;17.70;99.90;;;;;;5060510;28;20462;-79
2023/01/01 12:31:15;;;;;;;3.43;2.90;;;17.70;99.90;;;;;;5058457;28;20462;-78
2023/01/01 12:34:04;;;;;;;3.60;2.77;;;17.80;99.90;;;;;;5054931;28;20489;-77
2023/01/01 12:36:43;;;;;;;9.73;2.60;;;17.70;99.90;;;;;;5056329;28;20925;-78
2023/01/01 12:40:05;;;;;;;3.53;2.40;;;17.70;99.90;;;;;;5056591;28;20469;-77
2023/01/01 12:42:58;;;;;;;6.13;2.23;;;17.70;99.90;;;;;;5053689;28;20601;-77
2023/01/01 12:45:40;;;;;;;3.80;2.27;;;17.60;99.90;;;;;;5060159;28;20450;-78
2023/01/01 12:48:31;;;;;;;3.30;2.53;;;17.60;99.90;;;;;;5056367;28;21125;-78
2023/01/01 12:51:04;;;;;;;3.53;2.00;;;17.50;99.90;;;;;;5055957;28;20812;-77
2023/01/01 12:53:41;;;;;;;3.60;2.20;;;17.60;99.90;;;;;;5052696;28;20475;-77
2023/01/01 12:56:16;;;;;;;3.00;2.20;;;17.50;99.90;;;;;;5056442;28;20452;-78
2023/01/01 12:58:55;;;;;;;4.97;2.33;;;17.50;99.90;;;;;;5057810;28;20465;-77
2023/01/01 13:01:27;;;;;;;3.67;2.10;;;17.50;99.90;;;;;;5050485;28;20876;-78
2023/01/01 13:04:02;;;;;;;3.27;2.80;;;17.50;99.90;;;;;;5055693;28;20541;-78
2023/01/01 13:06:37;;;;;;;3.73;2.47;;;17.60;99.90;;;;;;5056277;28;20487;-78
2023/01/01 13:09:12;;;;;;;3.73;1.97;;;17.50;99.90;;;;;;5057746;28;20449;-78
2023/01/01 13:11:42;;;;;;;5.53;2.40;;;17.40;99.90;;;;;;5056552;28;20460;-78
2023/01/01 13:14:14;;;;;;;3.53;2.33;;;17.40;99.90;;;;;;5053205;28;20519;-79
2023/01/01 13:16:46;;;;;;;5.33;1.90;;;17.40;99.90;;;;;;5058556;28;20465;-78
2023/01/01 13:19:26;;;;;;;4.90;2.50;;;17.40;99.90;;;;;;5056263;28;20484;-78
2023/01/01 13:21:54;;;;;;;6.00;2.77;;;17.50;99.90;;;;;;5061468;28;20477;-78